Time;durP1;ratioP1;P1;durP2;ratioP2;P2;SDS_P1;SDS_P2;PMS_P1;PMS_P2;Temp;Humidity;BMP_temperature;BMP_pressure;BME280_temperature;BME280_humidity;BME280_pressure;Samples;Min_cycle;Max_cycle;Signal;HPM_P1;HPM_P2
2021/05/12 00:02:02;;;;;;;5.65;3.02;;;;;;;19.92;44.65;99385.90;1453834;94;21250;-70
2021/05/12 00:04:28;;;;;;;5.67;3.20;;;;;;;19.92;44.69;99384.02;1467348;94;20883;-70
2021/05/12 00:06:54;;;;;;;5.20;2.65;;;;;;;19.94;44.71;99381.06;1457410;94;21187;-70
2021/05/12 00:09:20;;;;;;;8.65;4.75;;;;;;;19.93;44.73;99395.66;1446157;95;20916;-70
2021/05/12 00:11:46;;;;;;;9.00;4.35;;;;;;;19.90;44.76;99379.94;1446071;95;21550;-70
2021/05/12 00:14:12;;;;;;;10.68;3.98;;;;;;;19.86;44.81;99388.28;1446330;95;21024;-70
2021/05/12 00:16:39;;;;;;;12.55;5.70;;;;;;;19.81;44.85;99392.27;1446086;95;21024;-70
2021/05/12 00:19:05;;;;;;;7.42;4.22;;;;;;;19.74;44.92;99387.59;1446120;95;21247;-70
2021/05/12 00:21:43;;;;;;;9.48;3.70;;;;;;;19.67;45.02;99386.45;1446089;95;21094;-69
2021/05/12 00:24:06;;;;;;;6.30;3.42;;;;;;;19.59;45.09;99386.09;1445276;95;21035;-70
2021/05/12 00:26:37;;;;;;;7.90;4.58;;;;;;;19.56;45.19;99388.78;1446405;95;21028;-70
2021/05/12 00:29:04;;;;;;;11.88;4.50;;;;;;;19.53;45.24;99388.47;1438748;95;21547;-70
2021/05/12 00:31:30;;;;;;;6.72;3.80;;;;;;;19.48;45.34;99387.04;1435799;95;21266;-70
2021/05/12 00:33:56;;;;;;;11.50;4.28;;;;;;;19.46;45.42;99385.14;1414220;97;21041;-70
2021/05/12 00:36:22;;;;;;;10.75;4.17;;;;;;;19.40;45.49;99391.79;1422331;97;20936;-70
2021/05/12 00:38:47;;;;;;;7.50;4.00;;;;;;;19.39;45.56;99390.14;1427318;95;20964;-70
2021/05/12 00:41:13;;;;;;;6.53;3.22;;;;;;;19.31;45.64;99389.25;1434839;95;21578;-70
2021/05/12 00:43:39;;;;;;;6.53;4.03;;;;;;;19.28;45.74;99391.64;1442539;95;21151;-70
2021/05/12 00:46:05;;;;;;;15.15;5.40;;;;;;;19.27;45.84;99391.35;1453625;94;21554;-70
2021/05/12 00:48:31;;;;;;;8.55;4.28;;;;;;;19.21;45.93;99388.30;1453818;94;20927;-71
2021/05/12 00:50:57;;;;;;;6.53;3.83;;;;;;;19.14;46.04;99390.38;1453521;94;21101;-70
2021/05/12 00:53:23;;;;;;;4.85;3.52;;;;;;;19.06;46.14;99391.62;1453650;94;20950;-70
2021/05/12 00:55:49;;;;;;;8.43;4.70;;;;;;;19.01;46.24;99390.19;1442808;94;21219;-71
2021/05/12 00:58:15;;;;;;;7.40;4.30;;;;;;;18.97;46.35;99394.45;1447652;95;20971;-70
2021/05/12 01:00:41;;;;;;;11.57;4.37;;;;;;;18.91;46.44;99390.87;1447678;95;21476;-70
2021/05/12 01:03:07;;;;;;;9.80;4.42;;;;;;;18.87;46.56;99395.66;1447660;95;21058;-70
2021/05/12 01:05:39;;;;;;;6.60;4.00;;;;;;;18.83;46.69;99402.61;1447068;93;21584;-70
2021/05/12 01:08:06;;;;;;;6.75;3.70;;;;;;;18.80;46.80;99404.47;1447126;95;21150;-71
2021/05/12 01:10:33;;;;;;;7.58;4.25;;;;;;;18.78;46.91;99406.61;1447846;95;21026;-70
2021/05/12 01:12:59;;;;;;;6.17;4.37;;;;;;;18.73;47.01;99401.11;1449500;95;21069;-70
2021/05/12 01:15:26;;;;;;;8.45;4.40;;;;;;;18.69;47.13;99403.49;1449392;95;21487;-70
2021/05/12 01:17:53;;;;;;;11.35;5.17;;;;;;;18.65;47.26;99402.88;1449359;95;21046;-70
2021/05/12 01:20:19;;;;;;;11.03;4.92;;;;;;;18.62;47.36;99399.31;1449155;95;21258;-70
2021/05/12 01:22:45;;;;;;;12.00;5.90;;;;;;;18.56;47.47;99400.31;1449190;95;21039;-70
2021/05/12 01:25:11;;;;;;;9.78;4.78;;;;;;;18.54;47.61;99403.80;1447767;95;21509;-70
2021/05/12 01:27:38;;;;;;;9.03;4.08;;;;;;;18.49;47.68;99404.50;1447859;95;21060;-70
2021/05/12 01:30:06;;;;;;;7.92;5.00;;;;;;;18.47;47.82;99403.38;1447696;95;21048;-70
2021/05/12 01:32:35;;;;;;;8.18;4.78;;;;;;;18.43;47.94;99400.09;1447475;95;21383;-70
2021/05/12 01:35:06;;;;;;;10.38;5.45;;;;;;;18.39;48.04;99402.98;1432844;96;21089;-70
2021/05/12 01:37:32;;;;;;;7.35;4.25;;;;;;;18.33;48.15;99396.67;1432800;96;21156;-70
2021/05/12 01:39:59;;;;;;;7.10;3.87;;;;;;;18.30;48.29;99405.26;1433235;94;21177;-70
2021/05/12 01:42:24;;;;;;;8.70;4.00;;;;;;;18.28;48.37;99395.78;1447561;95;21014;-70
2021/05/12 01:44:50;;;;;;;11.68;3.98;;;;;;;18.21;48.48;99395.94;1439408;93;21189;-70
2021/05/12 01:47:16;;;;;;;7.97;4.87;;;;;;;18.14;48.59;99395.27;1444796;94;21055;-70
2021/05/12 01:49:42;;;;;;;10.32;4.70;;;;;;;18.08;48.72;99401.66;1437918;95;21049;-70
2021/05/12 01:52:08;;;;;;;8.03;5.12;;;;;;;18.02;48.87;99401.25;1433990;94;21526;-70
2021/05/12 01:54:34;;;;;;;8.58;3.58;;;;;;;17.97;49.00;99405.22;1448959;94;21022;-70
2021/05/12 01:57:00;;;;;;;6.65;3.40;;;;;;;17.91;49.11;99403.47;1448406;94;21935;-70
2021/05/12 01:59:26;;;;;;;6.78;3.00;;;;;;;17.85;49.25;99409.84;1439844;94;20943;-70
2021/05/12 02:01:52;;;;;;;6.00;3.37;;;;;;;17.78;49.38;99407.81;1440281;94;21027;-70
2021/05/12 02:04:18;;;;;;;6.80;4.03;;;;;;;17.72;49.52;99410.13;1432393;95;21102;-70
2021/05/12 02:06:44;;;;;;;5.85;3.40;;;;;;;17.67;49.69;99405.45;1442607;94;21038;-69
2021/05/12 02:09:10;;;;;;;6.10;3.50;;;;;;;17.62;49.78;99407.24;1439568;94;21339;-70
2021/05/12 02:11:39;;;;;;;5.33;3.20;;;;;;;17.63;49.88;99418.30;1447715;95;21528;-70
2021/05/12 02:14:06;;;;;;;7.10;3.35;;;;;;;17.58;50.00;99412.30;1448116;95;21858;-70
2021/05/12 02:16:32;;;;;;;11.05;5.20;;;;;;;17.58;50.11;99415.52;1447358;95;21107;-69
2021/05/12 02:18:58;;;;;;;10.03;5.78;;;;;;;17.54;50.21;99413.80;1447670;95;21109;-70
2021/05/12 02:21:24;;;;;;;9.85;4.40;;;;;;;17.50;50.30;99415.33;1447633;95;21222;-70
2021/05/12 02:23:50;;;;;;;8.95;4.60;;;;;;;17.44;50.44;99417.11;1447791;95;20949;-70
2021/05/12 02:26:16;;;;;;;29.05;14.33;;;;;;;17.41;50.57;99411.38;1447601;95;21060;-70
2021/05/12 02:28:42;;;;;;;13.65;6.03;;;;;;;17.37;50.67;99418.30;1447886;95;21000;-70
2021/05/12 02:31:08;;;;;;;7.22;3.83;;;;;;;17.35;50.79;99417.17;1447804;95;21535;-70
2021/05/12 02:33:35;;;;;;;9.30;3.60;;;;;;;17.33;50.91;99422.52;1447703;95;21380;-70
2021/05/12 02:36:01;;;;;;;9.10;3.75;;;;;;;17.31;51.01;99425.44;1447781;95;21027;-69
2021/05/12 02:38:27;;;;;;;9.43;4.30;;;;;;;17.26;51.14;99429.91;1447629;95;21015;-70
2021/05/12 02:40:53;;;;;;;8.18;3.90;;;;;;;17.19;51.27;99432.73;1447919;95;21087;-69
2021/05/12 02:43:19;;;;;;;6.97;4.55;;;;;;;17.11;51.43;99433.09;1444147;95;21050;-70
2021/05/12 02:45:45;;;;;;;6.28;3.55;;;;;;;17.02;51.61;99427.78;1431894;96;21373;-69
2021/05/12 02:48:11;;;;;;;7.78;4.22;;;;;;;16.97;51.83;99437.08;1431763;96;21013;-70
2021/05/12 02:50:40;;;;;;;8.20;4.30;;;;;;;16.90;52.07;99447.97;1431941;96;21034;-69
2021/05/12 02:53:06;;;;;;;11.03;6.03;;;;;;;16.84;52.33;99442.70;1431927;96;21148;-69
2021/05/12 02:55:33;;;;;;;7.62;4.83;;;;;;;16.78;52.70;99447.69;1471585;93;21062;-69
2021/05/12 02:57:59;;;;;;;8.80;5.28;;;;;;;16.72;53.14;99449.94;1471553;93;21272;-70
2021/05/12 03:00:28;;;;;;;9.03;6.10;;;;;;;16.65;53.63;99451.92;1471400;93;21003;-70
2021/05/12 03:02:54;;;;;;;12.45;6.15;;;;;;;16.59;54.11;99450.17;1471501;93;21027;-70
2021/05/12 03:05:20;;;;;;;10.78;6.28;;;;;;;16.53;54.59;99452.42;1471444;93;21557;-70
2021/05/12 03:07:46;;;;;;;7.97;5.90;;;;;;;16.45;55.06;99451.70;1471494;93;20928;-69
2021/05/12 03:10:14;;;;;;;10.08;6.75;;;;;;;16.39;55.54;99451.29;1471349;93;21438;-69
2021/05/12 03:12:40;;;;;;;11.03;6.62;;;;;;;16.34;56.03;99453.01;1471509;93;21035;-70
2021/05/12 03:15:09;;;;;;;12.80;7.12;;;;;;;16.28;56.52;99460.14;1471654;93;21034;-70
2021/05/12 03:17:35;;;;;;;12.17;6.73;;;;;;;16.24;56.99;99465.69;1471525;93;21525;-70
2021/05/12 03:20:01;;;;;;;8.03;6.85;;;;;;;16.21;57.45;99464.80;1471548;93;20995;-70
2021/05/12 03:22:27;;;;;;;16.60;8.15;;;;;;;16.19;57.88;99461.50;1471344;93;21877;-70
2021/05/12 03:24:53;;;;;;;11.18;7.15;;;;;;;16.16;58.32;99470.03;1471242;93;21098;-69
2021/05/12 03:27:19;;;;;;;14.68;7.12;;;;;;;16.17;58.74;99468.99;1471242;93;21035;-69
2021/05/12 03:29:45;;;;;;;11.18;7.42;;;;;;;16.20;59.17;99471.22;1471279;93;21102;-70
2021/05/12 03:32:12;;;;;;;15.32;8.30;;;;;;;16.22;59.53;99477.19;1471560;93;21543;-69
2021/05/12 03:34:38;;;;;;;12.07;7.20;;;;;;;16.24;59.90;99473.75;1471551;93;21550;-70
2021/05/12 03:37:04;;;;;;;11.00;7.00;;;;;;;16.24;60.25;99477.79;1471594;93;21404;-70
2021/05/12 03:39:30;;;;;;;15.80;6.90;;;;;;;16.25;60.61;99480.78;1471347;93;20963;-69
2021/05/12 03:41:56;;;;;;;12.65;7.83;;;;;;;16.26;60.96;99478.38;1471370;93;20928;-69
2021/05/12 03:44:22;;;;;;;13.53;7.78;;;;;;;16.27;61.32;99471.95;1470783;93;20948;-70
2021/05/12 03:46:48;;;;;;;12.98;8.05;;;;;;;16.30;61.70;99467.45;1470010;93;21805;-69
2021/05/12 03:49:14;;;;;;;13.80;7.72;;;;;;;16.33;62.08;99476.92;1459541;93;21050;-70
2021/05/12 03:51:40;;;;;;;13.30;7.85;;;;;;;16.66;62.60;99476.45;1406831;98;21036;-70
2021/05/12 03:54:06;;;;;;;11.33;7.53;;;;;;;17.23;62.84;99473.50;1434547;95;20940;-70
2021/05/12 03:56:32;;;;;;;9.93;7.30;;;;;;;17.73;62.87;99472.46;1445889;95;21329;-70
2021/05/12 03:58:58;;;;;;;12.20;8.15;;;;;;;18.12;62.84;99476.98;1445894;95;21246;-70
2021/05/12 04:01:24;;;;;;;12.98;8.10;;;;;;;18.48;62.79;99476.58;1445889;95;20944;-70
2021/05/12 04:03:50;;;;;;;11.70;8.13;;;;;;;18.82;62.73;99479.34;1445794;95;20976;-70
2021/05/12 04:06:16;;;;;;;13.22;6.80;;;;;;;19.11;62.53;99483.56;1445869;95;21070;-70
2021/05/12 04:08:42;;;;;;;9.73;6.22;;;;;;;19.39;62.39;99479.38;1445773;95;20960;-70
2021/05/12 04:11:08;;;;;;;9.05;6.65;;;;;;;19.57;62.16;99482.89;1445972;95;21718;-70
2021/05/12 04:13:34;;;;;;;11.48;6.35;;;;;;;19.84;61.93;99481.09;1445957;95;20940;-70
2021/05/12 04:16:00;;;;;;;8.20;6.25;;;;;;;20.14;61.68;99484.13;1446028;95;21043;-70
2021/05/12 04:18:27;;;;;;;9.08;6.08;;;;;;;20.49;61.40;99485.59;1445728;95;20905;-70
2021/05/12 04:20:53;;;;;;;8.63;5.53;;;;;;;20.60;60.88;99485.44;1445886;95;21091;-70
2021/05/12 04:23:19;;;;;;;7.85;5.53;;;;;;;20.73;60.58;99478.76;1445724;95;21053;-70
2021/05/12 04:25:45;;;;;;;11.80;5.95;;;;;;;20.91;60.18;99477.02;1445923;95;21016;-70
2021/05/12 04:28:11;;;;;;;6.05;5.40;;;;;;;21.33;59.84;99481.95;1445959;95;21469;-70
2021/05/12 04:30:37;;;;;;;7.12;4.97;;;;;;;21.50;59.11;99479.61;1445865;95;20945;-70
2021/05/12 04:33:04;;;;;;;8.55;5.10;;;;;;;21.49;58.82;99494.25;1445996;95;21114;-70
2021/05/12 04:35:30;;;;;;;11.50;5.62;;;;;;;21.67;58.55;99487.02;1445755;95;21580;-70
2021/05/12 04:37:56;;;;;;;11.35;5.45;;;;;;;21.62;57.96;99484.27;1445851;95;21123;-70
2021/05/12 04:40:22;;;;;;;9.28;5.35;;;;;;;21.57;57.58;99486.41;1445493;95;20960;-70
2021/05/12 04:42:48;;;;;;;7.87;5.45;;;;;;;21.63;57.17;99489.45;1445591;95;21131;-70
2021/05/12 04:45:16;;;;;;;7.15;5.00;;;;;;;21.41;56.71;99492.31;1458450;94;21054;-71
2021/05/12 04:47:42;;;;;;;10.82;4.95;;;;;;;21.09;57.02;99487.45;1459745;94;21299;-70
2021/05/12 04:50:10;;;;;;;13.22;5.75;;;;;;;20.66;57.35;99491.70;1464363;94;21054;-71
2021/05/12 04:52:36;;;;;;;8.85;5.70;;;;;;;20.42;57.75;99502.88;1462401;94;21605;-71
2021/05/12 04:55:03;;;;;;;8.53;5.20;;;;;;;20.44;57.99;99508.84;1465035;94;21134;-70
2021/05/12 04:57:29;;;;;;;11.70;5.42;;;;;;;20.42;58.17;99506.94;1464641;94;21117;-71
2021/05/12 04:59:55;;;;;;;9.25;5.53;;;;;;;20.57;58.25;99516.29;1449504;94;21290;-70
2021/05/12 05:02:21;;;;;;;8.10;5.55;;;;;;;20.51;58.24;99516.79;1440520;95;21038;-70
2021/05/12 05:04:47;;;;;;;7.70;6.03;;;;;;;20.52;58.33;99518.94;1464827;94;21092;-71
2021/05/12 05:07:13;;;;;;;8.95;5.97;;;;;;;20.52;58.36;99523.82;1464558;94;21471;-71
2021/05/12 05:09:39;;;;;;;12.20;6.17;;;;;;;20.55;58.41;99527.93;1464631;94;21115;-71
2021/05/12 05:12:05;;;;;;;10.70;6.28;;;;;;;20.74;58.43;99533.25;1456667;94;21251;-71
2021/05/12 05:14:31;;;;;;;10.20;6.17;;;;;;;20.98;58.37;99545.38;1434343;94;21064;-70
2021/05/12 05:16:57;;;;;;;8.18;5.45;;;;;;;20.81;58.28;99546.05;1448866;94;20966;-71
2021/05/12 05:19:23;;;;;;;8.93;5.90;;;;;;;20.53;58.28;99543.61;1451595;94;21102;-71
2021/05/12 05:21:50;;;;;;;14.78;9.25;;;;;;;20.34;58.37;99546.66;1445778;94;20979;-71
2021/05/12 05:24:16;;;;;;;9.40;6.25;;;;;;;20.37;58.49;99548.85;1440490;94;21133;-71
2021/05/12 05:26:42;;;;;;;7.58;6.00;;;;;;;20.52;58.58;99548.73;1444002;95;21085;-71
2021/05/12 05:29:08;;;;;;;10.10;5.60;;;;;;;20.62;58.55;99551.58;1432820;95;21457;-71
2021/05/12 05:31:34;;;;;;;7.55;5.92;;;;;;;20.59;58.48;99560.19;1411111;97;20959;-71
2021/05/12 05:34:00;;;;;;;7.45;5.33;;;;;;;20.67;58.46;99562.44;1431609;94;20955;-72
2021/05/12 05:36:26;;;;;;;10.65;5.28;;;;;;;20.61;58.43;99564.30;1433388;95;21247;-71
2021/05/12 05:38:52;;;;;;;11.57;5.72;;;;;;;20.64;58.52;99562.95;1451766;95;21653;-71
2021/05/12 05:41:18;;;;;;;10.80;5.97;;;;;;;20.69;58.48;99567.09;1438513;95;21057;-71
2021/05/12 05:43:44;;;;;;;8.98;5.35;;;;;;;20.95;58.50;99566.23;1430987;96;20954;-71
2021/05/12 05:46:10;;;;;;;12.55;6.20;;;;;;;20.93;58.34;99567.05;1433227;96;21042;-71
2021/05/12 05:48:36;;;;;;;13.00;5.37;;;;;;;20.83;58.35;99570.98;1435852;96;21905;-71
2021/05/12 05:51:02;;;;;;;9.58;5.75;;;;;;;20.83;58.35;99569.63;1433262;96;20963;-71
2021/05/12 05:53:28;;;;;;;8.58;5.58;;;;;;;20.88;58.42;99573.77;1425967;96;21498;-71
2021/05/12 05:55:54;;;;;;;13.98;5.80;;;;;;;20.59;58.42;99577.80;1420815;96;21040;-71
2021/05/12 05:58:19;;;;;;;10.75;6.12;;;;;;;20.15;58.58;99581.06;1414159;96;20919;-70
2021/05/12 06:00:47;;;;;;;6.35;5.45;;;;;;;19.75;58.82;99582.70;1421594;96;21204;-71
2021/05/12 06:03:13;;;;;;;8.48;6.17;;;;;;;19.40;59.11;99581.08;1417360;96;21081;-71
2021/05/12 06:05:45;;;;;;;14.70;5.78;;;;;;;19.20;59.42;99579.95;1420592;96;21190;-71
2021/05/12 06:08:11;;;;;;;9.63;6.45;;;;;;;19.60;59.73;99582.50;1415022;96;21095;-71
2021/05/12 06:10:38;;;;;;;10.58;6.37;;;;;;;19.80;59.70;99585.48;1421712;96;20963;-70
2021/05/12 06:13:04;;;;;;;11.05;5.62;;;;;;;19.64;59.84;99590.37;1414833;96;21230;-71
2021/05/12 06:15:30;;;;;;;9.70;6.37;;;;;;;19.47;60.01;99597.70;1417073;96;21049;-70
2021/05/12 06:17:56;;;;;;;6.83;6.15;;;;;;;19.27;60.28;99598.17;1415424;96;21135;-70
2021/05/12 06:20:22;;;;;;;9.90;6.75;;;;;;;19.15;60.50;99594.19;1416270;96;21026;-70
2021/05/12 06:22:48;;;;;;;7.50;5.47;;;;;;;18.89;60.81;99602.94;1415025;96;21063;-70
2021/05/12 06:25:14;;;;;;;11.12;7.33;;;;;;;18.72;61.10;99605.59;1417217;96;21927;-70
2021/05/12 06:27:42;;;;;;;9.33;7.10;;;;;;;18.65;61.40;99604.09;1414111;96;20979;-70
2021/05/12 06:30:10;;;;;;;10.50;7.83;;;;;;;18.55;61.57;99610.13;1408014;97;21171;-70
2021/05/12 06:32:36;;;;;;;11.25;7.60;;;;;;;18.59;61.72;99605.89;1426365;95;22273;-70
2021/05/12 06:35:03;;;;;;;10.60;7.42;;;;;;;18.60;61.84;99607.54;1427731;95;21111;-70
2021/05/12 06:37:29;;;;;;;8.80;7.90;;;;;;;18.58;62.00;99607.50;1413624;96;21161;-71
2021/05/12 06:39:55;;;;;;;9.98;8.60;;;;;;;18.50;62.15;99605.14;1413388;96;21051;-70
2021/05/12 06:42:21;;;;;;;9.10;7.55;;;;;;;18.41;62.29;99616.31;1411301;96;21519;-70
2021/05/12 06:44:47;;;;;;;8.78;7.40;;;;;;;18.27;62.44;99617.64;1417146;95;21035;-70
2021/05/12 06:47:13;;;;;;;7.95;7.00;;;;;;;18.22;62.62;99623.48;1428737;95;20986;-70
2021/05/12 06:49:39;;;;;;;9.18;8.15;;;;;;;18.20;62.77;99616.13;1423610;95;21249;-70
2021/05/12 06:52:05;;;;;;;8.43;7.40;;;;;;;18.22;62.85;99620.26;1427357;95;20954;-70
2021/05/12 06:54:31;;;;;;;8.43;7.12;;;;;;;18.18;62.98;99621.78;1432035;95;21069;-70
2021/05/12 06:56:57;;;;;;;10.68;7.33;;;;;;;18.19;63.11;99626.11;1423716;96;21064;-70
2021/05/12 06:59:23;;;;;;;9.90;7.80;;;;;;;18.26;63.15;99626.80;1424136;95;21060;-70
2021/05/12 07:01:49;;;;;;;9.03;6.90;;;;;;;18.19;63.23;99631.50;1425493;95;21091;-70
2021/05/12 07:04:15;;;;;;;7.58;6.85;;;;;;;18.13;63.39;99632.98;1425366;95;21078;-70
2021/05/12 07:06:42;;;;;;;10.13;6.80;;;;;;;18.09;63.56;99629.94;1420648;95;21542;-70
2021/05/12 07:09:08;;;;;;;8.28;7.35;;;;;;;18.16;63.65;99626.59;1422164;95;21058;-70
2021/05/12 07:11:34;;;;;;;14.07;6.62;;;;;;;18.22;63.71;99624.30;1424046;95;21087;-70
2021/05/12 07:14:00;;;;;;;8.28;6.92;;;;;;;18.25;63.80;99634.63;1427612;95;21631;-70
2021/05/12 07:16:26;;;;;;;9.23;7.08;;;;;;;18.32;63.91;99635.31;1430633;95;20976;-70
2021/05/12 07:18:52;;;;;;;9.78;7.70;;;;;;;18.24;63.98;99630.27;1426619;95;22515;-70
2021/05/12 07:21:18;;;;;;;13.75;8.53;;;;;;;18.21;64.11;99634.80;1429631;95;21014;-70
2021/05/12 07:23:44;;;;;;;9.95;8.23;;;;;;;18.18;64.19;99633.94;1430755;95;21018;-70
2021/05/12 07:26:12;;;;;;;13.70;8.05;;;;;;;18.10;64.33;99641.56;1419565;96;21624;-70
2021/05/12 07:28:38;;;;;;;11.25;8.33;;;;;;;18.10;64.46;99638.86;1421404;95;21135;-70
2021/05/12 07:31:05;;;;;;;8.30;7.25;;;;;;;18.10;64.56;99647.78;1425242;95;21119;-70
2021/05/12 07:33:31;;;;;;;9.05;7.20;;;;;;;18.13;64.61;99651.36;1427480;95;21079;-70
2021/05/12 07:35:57;;;;;;;10.58;7.17;;;;;;;18.14;64.71;99648.13;1462268;93;21602;-70
2021/05/12 07:38:23;;;;;;;9.53;7.00;;;;;;;18.15;64.79;99649.78;1463596;93;21229;-70
2021/05/12 07:40:49;;;;;;;7.47;6.62;;;;;;;18.21;64.84;99645.60;1433243;95;20999;-70
2021/05/12 07:43:15;;;;;;;8.30;7.40;;;;;;;18.27;64.90;99637.89;1429778;95;20980;-70
2021/05/12 07:45:41;;;;;;;9.03;6.70;;;;;;;18.27;65.01;99639.23;1433496;95;21098;-70
2021/05/12 07:48:11;;;;;;;9.25;6.67;;;;;;;18.28;65.07;99642.23;1433312;95;21361;-70
2021/05/12 07:50:38;;;;;;;10.65;8.40;;;;;;;18.34;65.15;99638.58;1440284;95;21252;-70
2021/05/12 07:53:06;;;;;;;11.45;8.23;;;;;;;18.45;65.15;99644.48;1428426;95;21086;-70
2021/05/12 07:55:32;;;;;;;10.98;7.92;;;;;;;18.59;65.15;99639.65;1439455;95;21375;-70
2021/05/12 07:57:58;;;;;;;12.75;7.80;;;;;;;18.67;65.14;99639.80;1442032;95;21168;-70
2021/05/12 08:00:24;;;;;;;12.45;8.15;;;;;;;18.67;65.12;99646.03;1430790;95;21018;-70
2021/05/12 08:02:50;;;;;;;10.55;8.55;;;;;;;18.66;65.14;99648.95;1438911;95;21235;-70
2021/05/12 08:05:16;;;;;;;12.63;8.48;;;;;;;18.71;65.13;99655.82;1442650;95;20998;-70
2021/05/12 08:07:42;;;;;;;8.80;7.95;;;;;;;18.79;65.11;99647.31;1434184;95;20920;-70
2021/05/12 08:10:10;;;;;;;12.95;8.88;;;;;;;18.90;65.06;99646.45;1445553;95;20968;-70
2021/05/12 08:12:36;;;;;;;8.78;7.90;;;;;;;18.90;64.98;99645.09;1434495;95;21137;-70
2021/05/12 08:15:02;;;;;;;8.88;7.40;;;;;;;18.93;64.95;99640.55;1439407;95;21849;-71
2021/05/12 08:17:28;;;;;;;8.75;7.45;;;;;;;18.98;64.91;99644.70;1440038;95;21073;-70
2021/05/12 08:19:57;;;;;;;7.90;6.87;;;;;;;19.08;64.90;99648.12;1449038;95;21097;-70
2021/05/12 08:22:23;;;;;;;9.18;6.67;;;;;;;19.21;64.88;99652.67;1440287;95;21529;-70
2021/05/12 08:24:48;;;;;;;10.65;6.70;;;;;;;19.43;64.81;99656.86;1444060;95;20966;-70
2021/05/12 08:27:14;;;;;;;10.05;6.85;;;;;;;19.44;64.68;99655.28;1437808;95;21821;-70
2021/05/12 08:29:42;;;;;;;9.55;6.65;;;;;;;19.38;64.61;99653.53;1429251;95;21117;-70
2021/05/12 08:32:14;;;;;;;12.80;6.67;;;;;;;19.37;64.57;99654.59;1442270;95;21077;-70
2021/05/12 08:34:39;;;;;;;8.70;6.92;;;;;;;19.42;64.50;99653.34;1433643;95;21087;-70
2021/05/12 08:37:06;;;;;;;7.33;6.55;;;;;;;19.51;64.42;99659.70;1429298;95;20921;-70
2021/05/12 08:39:33;;;;;;;10.78;6.42;;;;;;;19.50;64.29;99659.41;1431099;95;21263;-70
2021/05/12 08:41:59;;;;;;;10.93;6.47;;;;;;;19.48;64.24;99657.48;1428179;95;21067;-70
2021/05/12 08:44:25;;;;;;;10.60;6.72;;;;;;;19.51;64.21;99651.59;1441129;95;21043;-70
2021/05/12 08:46:52;;;;;;;10.35;7.47;;;;;;;19.53;64.11;99652.17;1435693;95;21499;-70
2021/05/12 08:49:18;;;;;;;8.53;5.95;;;;;;;19.48;64.10;99654.26;1433259;95;21112;-70
2021/05/12 08:51:45;;;;;;;9.70;7.28;;;;;;;19.48;64.04;99652.08;1431618;95;21327;-70
2021/05/12 08:54:12;;;;;;;7.60;6.22;;;;;;;19.43;64.02;99652.28;1431970;95;21142;-70
2021/05/12 08:56:38;;;;;;;9.63;6.20;;;;;;;19.46;64.03;99656.93;1431231;95;21071;-70
2021/05/12 08:59:04;;;;;;;11.30;7.15;;;;;;;19.43;63.99;99651.45;1431074;95;21102;-70
2021/05/12 09:01:30;;;;;;;8.43;6.80;;;;;;;19.36;63.97;99654.30;1441216;95;20942;-70
2021/05/12 09:03:56;;;;;;;8.95;7.28;;;;;;;19.33;64.00;99656.14;1442786;95;21895;-69
2021/05/12 09:06:22;;;;;;;8.85;6.28;;;;;;;19.35;64.02;99654.56;1440800;95;21553;-70
2021/05/12 09:08:49;;;;;;;7.70;6.90;;;;;;;19.41;64.02;99653.08;1434102;95;21051;-69
2021/05/12 09:11:15;;;;;;;8.05;6.67;;;;;;;19.48;64.01;99652.08;1436103;95;21597;-70
2021/05/12 09:13:44;;;;;;;7.42;6.70;;;;;;;19.51;64.00;99657.82;1437449;95;20903;-69
2021/05/12 09:16:23;;;;;;;8.98;7.15;;;;;;;19.62;63.97;99661.50;1430872;95;21252;-70
2021/05/12 09:19:10;;;;;;;9.88;6.78;;;;;;;19.72;63.87;99656.25;1437688;95;21105;-70
2021/05/12 09:21:51;;;;;;;9.63;6.78;;;;;;;19.80;63.78;99649.08;1435243;94;21551;-70
2021/05/12 09:24:31;;;;;;;10.20;6.92;;;;;;;19.86;63.67;99644.84;1433717;95;21070;-70
2021/05/12 09:27:01;;;;;;;;;;;;;;;19.89;63.55;99646.22;1438256;95;21509;-70
2021/05/12 09:29:34;;;;;;;9.93;6.62;;;;;;;19.94;63.48;99644.42;1426925;95;21125;-70
2021/05/12 09:32:03;;;;;;;8.98;7.20;;;;;;;19.95;63.42;99645.22;1431438;95;21572;-70
2021/05/12 09:34:31;;;;;;;11.70;7.57;;;;;;;20.02;63.31;99641.00;1431470;96;21058;-70
2021/05/12 09:36:57;;;;;;;12.15;6.97;;;;;;;19.91;63.24;99649.52;1439765;95;21575;-70
2021/05/12 09:39:23;;;;;;;7.78;7.05;;;;;;;19.92;63.24;99640.30;1439530;95;21026;-70
2021/05/12 09:41:49;;;;;;;7.42;6.72;;;;;;;19.93;63.14;99636.54;1429938;95;21921;-70
2021/05/12 09:44:17;;;;;;;8.38;7.10;;;;;;;19.92;63.02;99645.72;1445327;95;21062;-70
2021/05/12 09:46:43;;;;;;;9.90;7.72;;;;;;;19.95;62.90;99646.57;1406465;96;21118;-70
2021/05/12 09:49:14;;;;;;;8.85;6.90;;;;;;;19.97;62.83;99650.39;1431793;96;21026;-69
2021/05/12 09:51:44;;;;;;;8.20;6.42;;;;;;;19.99;62.78;99647.72;1426719;96;21064;-70
2021/05/12 09:54:17;;;;;;;8.00;5.85;;;;;;;19.98;62.72;99646.62;1465331;93;21586;-70
2021/05/12 09:56:54;;;;;;;9.08;7.03;;;;;;;20.03;62.71;99650.21;1425436;96;21703;-70
2021/05/12 09:59:27;;;;;;;9.20;7.40;;;;;;;20.15;62.59;99648.23;1416747;96;21046;-70
2021/05/12 10:02:00;;;;;;;13.90;7.17;;;;;;;20.17;62.54;99653.38;1420144;96;21554;-70
2021/05/12 10:07:23;;;;;;;7.58;6.47;;;;;;;20.33;62.38;99647.95;1423049;96;21566;-70
2021/05/12 10:09:51;;;;;;;10.38;7.85;;;;;;;20.48;62.28;99637.03;1421937;96;21099;-70
2021/05/12 10:12:27;;;;;;;7.22;6.53;;;;;;;20.68;62.15;99639.43;1417626;96;21095;-70
2021/05/12 10:14:56;;;;;;;9.43;8.28;;;;;;;20.76;62.00;99639.48;1420591;96;21562;-70
2021/05/12 10:17:22;;;;;;;10.32;9.23;;;;;;;20.89;61.85;99635.86;1417930;96;21060;-70
2021/05/12 10:19:49;;;;;;;10.48;8.53;;;;;;;20.96;61.72;99637.01;1423525;95;21654;-69
2021/05/12 10:22:15;;;;;;;8.63;7.72;;;;;;;21.07;61.58;99637.39;1437193;95;21062;-70
2021/05/12 10:24:43;;;;;;;9.83;7.97;;;;;;;21.15;61.47;99642.36;1442338;95;21577;-70
2021/05/12 10:27:14;;;;;;;14.05;9.28;;;;;;;21.29;61.33;99633.26;1436117;95;21100;-70
2021/05/12 10:29:43;;;;;;;8.63;7.78;;;;;;;21.38;61.18;99628.48;1438590;95;21064;-70
2021/05/12 10:32:19;;;;;;;10.58;8.73;;;;;;;21.38;61.03;99639.33;1414023;95;21280;-70
2021/05/12 10:34:47;;;;;;;10.65;7.80;;;;;;;21.27;60.85;99637.60;1440002;95;21093;-70
2021/05/12 10:37:25;;;;;;;12.95;7.83;;;;;;;21.27;60.83;99640.31;1440608;95;21086;-70
2021/05/12 10:39:53;;;;;;;10.18;7.58;;;;;;;21.40;60.61;99645.30;1439728;95;21116;-70
2021/05/12 10:43:02;;;;;;;11.65;8.45;;;;;;;21.45;60.42;99645.89;1437639;95;21096;-70
2021/05/12 10:45:54;;;;;;;11.12;8.40;;;;;;;21.46;60.28;99652.14;1434240;95;21191;-70
2021/05/12 10:48:47;;;;;;;11.33;7.83;;;;;;;21.36;60.17;99653.67;1430328;95;21087;-70
2021/05/12 10:51:30;;;;;;;12.30;8.75;;;;;;;21.31;60.12;99653.65;1434339;96;21066;-70
2021/05/12 10:53:56;;;;;;;12.82;9.10;;;;;;;21.32;60.05;99651.19;1428085;95;21526;-69
2021/05/12 10:56:25;;;;;;;10.28;9.28;;;;;;;21.47;59.90;99658.65;1434305;95;21551;-70
2021/05/12 10:58:58;;;;;;;9.50;8.50;;;;;;;21.54;59.74;99661.14;1448078;93;21236;-70
2021/05/12 11:01:29;;;;;;;13.78;9.90;;;;;;;21.59;59.68;99659.83;1451104;93;21529;-70
2021/05/12 11:04:01;;;;;;;10.95;9.33;;;;;;;21.59;59.49;99650.34;1436476;94;21035;-70
2021/05/12 11:06:41;;;;;;;14.25;8.85;;;;;;;21.54;59.36;99655.71;1452069;93;21097;-70
2021/05/12 11:09:19;;;;;;;9.78;8.80;;;;;;;21.49;59.25;99652.44;1456398;93;21483;-70
2021/05/12 11:11:51;;;;;;;9.38;8.43;;;;;;;21.54;59.22;99655.71;1451072;94;21835;-70
2021/05/12 11:14:32;;;;;;;12.07;10.28;;;;;;;21.59;59.16;99650.34;1450660;94;21078;-70
2021/05/12 11:17:17;;;;;;;11.40;10.20;;;;;;;21.82;59.12;99645.88;1447976;93;21061;-70
2021/05/12 11:19:53;;;;;;;11.15;10.08;;;;;;;22.13;59.01;99635.50;1452849;94;21097;-70
2021/05/12 11:25:27;;;;;;;11.10;10.05;;;;;;;22.29;58.62;99632.33;1447879;93;21643;-70
2021/05/12 11:33:37;;;;;;;10.72;9.63;;;;;;;21.75;58.23;99624.92;1454206;93;21821;-69
2021/05/12 11:36:09;;;;;;;10.63;9.20;;;;;;;21.71;58.20;99621.13;1453438;93;21485;-70
2021/05/12 11:38:35;;;;;;;10.15;9.03;;;;;;;21.80;58.07;99617.65;1451362;93;22101;-70
2021/05/12 11:41:10;;;;;;;11.50;8.88;;;;;;;21.83;57.94;99620.37;1453015;93;21034;-70
2021/05/12 11:43:45;;;;;;;10.43;9.43;;;;;;;21.72;57.78;99621.38;1451317;94;21142;-70